Hardenville, Missouri
Current Conditions -  °F | °C
As of 7:53 AM on Tuesday 27 Jan 2015 (Local Time) from KBPK Reporting Station
Clear Clear  
Wind Chill: 40°   Ceiling: Unl
Heat Index: 40°   Visibility: 10mi
Dew Point: 35°   Wind: 0mph
Humidity: 83%   Direction: NA
Pressure: 30.12"   Gusts: NA
Location:  36.59°N, 92.37°W
Report Text: KBPK 271353Z AUTO 00000KT 10SM CLR 04/02 A3012 RMK AO2 SLP199 T00440017
Loading
Personal Weather Stations






























Interactive Weather Map New forecast layout! Learn more

10-Day Weather Forecast

Advertisements
Track Severe Weather on mobile